sensor_id;sensor_type;location;lat;lon;timestamp;temperature;humidity
72484;DHT22;74199;52.014;5.430;2023-11-22T00:01:21;18.90;45.80
72484;DHT22;74199;52.014;5.430;2023-11-22T00:03:48;18.90;45.80
72484;DHT22;74199;52.014;5.430;2023-11-22T00:06:16;18.90;45.80
72484;DHT22;74199;52.014;5.430;2023-11-22T00:08:47;18.90;45.80
72484;DHT22;74199;52.014;5.430;2023-11-22T00:11:14;19.00;45.80
72484;DHT22;74199;52.014;5.430;2023-11-22T00:13:41;19.00;45.80
72484;DHT22;74199;52.014;5.430;2023-11-22T00:16:08;19.00;45.80
72484;DHT22;74199;52.014;5.430;2023-11-22T00:18:36;19.00;45.80
72484;DHT22;74199;52.014;5.430;2023-11-22T00:21:06;19.00;45.80
72484;DHT22;74199;52.014;5.430;2023-11-22T00:23:32;19.00;45.80
72484;DHT22;74199;52.014;5.430;2023-11-22T00:25:59;19.00;45.80
72484;DHT22;74199;52.014;5.430;2023-11-22T00:28:26;18.90;45.80
72484;DHT22;74199;52.014;5.430;2023-11-22T00:30:53;19.00;45.80
72484;DHT22;74199;52.014;5.430;2023-11-22T00:33:20;19.00;45.90
72484;DHT22;74199;52.014;5.430;2023-11-22T00:35:47;18.90;45.90
72484;DHT22;74199;52.014;5.430;2023-11-22T00:38:14;19.00;46.00
72484;DHT22;74199;52.014;5.430;2023-11-22T00:40:41;18.90;45.90
72484;DHT22;74199;52.014;5.430;2023-11-22T00:43:08;18.90;46.00
72484;DHT22;74199;52.014;5.430;2023-11-22T00:45:35;18.90;46.00
72484;DHT22;74199;52.014;5.430;2023-11-22T00:48:02;19.00;46.00
72484;DHT22;74199;52.014;5.430;2023-11-22T00:50:29;18.90;46.00
72484;DHT22;74199;52.014;5.430;2023-11-22T00:52:56;19.00;46.00
72484;DHT22;74199;52.014;5.430;2023-11-22T00:55:23;18.90;46.00
72484;DHT22;74199;52.014;5.430;2023-11-22T00:57:50;18.90;46.10
72484;DHT22;74199;52.014;5.430;2023-11-22T01:00:17;18.90;46.10
72484;DHT22;74199;52.014;5.430;2023-11-22T01:02:44;18.90;46.00
72484;DHT22;74199;52.014;5.430;2023-11-22T01:05:11;18.90;46.10
72484;DHT22;74199;52.014;5.430;2023-11-22T01:07:39;18.90;46.10
72484;DHT22;74199;52.014;5.430;2023-11-22T01:10:07;18.90;46.10
72484;DHT22;74199;52.014;5.430;2023-11-22T01:12:34;18.90;46.10
72484;DHT22;74199;52.014;5.430;2023-11-22T01:15:02;18.90;46.00
72484;DHT22;74199;52.014;5.430;2023-11-22T01:17:29;18.90;46.00
72484;DHT22;74199;52.014;5.430;2023-11-22T01:20:01;18.90;46.00
72484;DHT22;74199;52.014;5.430;2023-11-22T01:22:29;18.90;46.10
72484;DHT22;74199;52.014;5.430;2023-11-22T01:24:55;18.90;46.20
72484;DHT22;74199;52.014;5.430;2023-11-22T01:27:22;18.90;46.30
72484;DHT22;74199;52.014;5.430;2023-11-22T01:29:50;18.90;46.40
72484;DHT22;74199;52.014;5.430;2023-11-22T01:32:17;19.00;46.40
72484;DHT22;74199;52.014;5.430;2023-11-22T01:34:45;18.90;46.40
72484;DHT22;74199;52.014;5.430;2023-11-22T01:37:12;18.90;46.40
72484;DHT22;74199;52.014;5.430;2023-11-22T01:39:40;18.90;46.40
72484;DHT22;74199;52.014;5.430;2023-11-22T01:42:08;19.00;46.40
72484;DHT22;74199;52.014;5.430;2023-11-22T01:44:36;18.90;46.40
72484;DHT22;74199;52.014;5.430;2023-11-22T01:47:04;18.90;46.40
72484;DHT22;74199;52.014;5.430;2023-11-22T01:49:32;18.90;46.40
72484;DHT22;74199;52.014;5.430;2023-11-22T01:51:59;18.90;46.40
72484;DHT22;74199;52.014;5.430;2023-11-22T01:54:28;18.90;46.30
72484;DHT22;74199;52.014;5.430;2023-11-22T01:56:56;18.90;46.30
72484;DHT22;74199;52.014;5.430;2023-11-22T01:59:25;18.90;46.30
72484;DHT22;74199;52.014;5.430;2023-11-22T02:01:56;18.90;46.30
72484;DHT22;74199;52.014;5.430;2023-11-22T02:04:23;18.90;46.30
72484;DHT22;74199;52.014;5.430;2023-11-22T02:06:51;18.90;46.30
72484;DHT22;74199;52.014;5.430;2023-11-22T02:09:18;18.90;46.10
72484;DHT22;74199;52.014;5.430;2023-11-22T02:11:46;18.90;46.10
72484;DHT22;74199;52.014;5.430;2023-11-22T02:14:16;18.90;46.10
72484;DHT22;74199;52.014;5.430;2023-11-22T02:16:43;18.90;46.10
72484;DHT22;74199;52.014;5.430;2023-11-22T02:19:17;18.90;46.10
72484;DHT22;74199;52.014;5.430;2023-11-22T02:21:44;18.90;46.00
72484;DHT22;74199;52.014;5.430;2023-11-22T02:24:12;18.90;46.00
72484;DHT22;74199;52.014;5.430;2023-11-22T02:26:44;18.90;46.00
72484;DHT22;74199;52.014;5.430;2023-11-22T02:29:11;18.90;45.90
72484;DHT22;74199;52.014;5.430;2023-11-22T02:31:42;18.90;46.00
72484;DHT22;74199;52.014;5.430;2023-11-22T02:34:12;18.90;46.00
72484;DHT22;74199;52.014;5.430;2023-11-22T02:36:39;18.90;46.00
72484;DHT22;74199;52.014;5.430;2023-11-22T02:39:14;18.90;46.00
72484;DHT22;74199;52.014;5.430;2023-11-22T02:41:41;18.90;46.00
72484;DHT22;74199;52.014;5.430;2023-11-22T02:44:08;18.90;45.90
72484;DHT22;74199;52.014;5.430;2023-11-22T02:46:35;18.90;45.90
72484;DHT22;74199;52.014;5.430;2023-11-22T02:49:02;18.90;45.80
72484;DHT22;74199;52.014;5.430;2023-11-22T02:51:31;18.90;45.80
72484;DHT22;74199;52.014;5.430;2023-11-22T02:53:57;18.90;45.70
72484;DHT22;74199;52.014;5.430;2023-11-22T02:56:24;18.90;45.70
72484;DHT22;74199;52.014;5.430;2023-11-22T02:58:52;18.90;45.60
72484;DHT22;74199;52.014;5.430;2023-11-22T03:01:19;18.90;45.60
72484;DHT22;74199;52.014;5.430;2023-11-22T03:03:46;18.90;45.60
72484;DHT22;74199;52.014;5.430;2023-11-22T03:06:13;18.90;45.60
72484;DHT22;74199;52.014;5.430;2023-11-22T03:08:40;18.90;45.50
72484;DHT22;74199;52.014;5.430;2023-11-22T03:11:07;18.90;45.50
72484;DHT22;74199;52.014;5.430;2023-11-22T03:13:34;18.90;45.40
72484;DHT22;74199;52.014;5.430;2023-11-22T03:16:01;18.90;45.40
72484;DHT22;74199;52.014;5.430;2023-11-22T03:18:30;18.90;45.30
72484;DHT22;74199;52.014;5.430;2023-11-22T03:20:59;18.90;45.20
72484;DHT22;74199;52.014;5.430;2023-11-22T03:23:28;18.90;45.20
72484;DHT22;74199;52.014;5.430;2023-11-22T03:25:55;18.90;45.20
72484;DHT22;74199;52.014;5.430;2023-11-22T03:28:21;18.90;45.10
72484;DHT22;74199;52.014;5.430;2023-11-22T03:30:49;18.90;45.20
72484;DHT22;74199;52.014;5.430;2023-11-22T03:33:16;18.90;45.10
72484;DHT22;74199;52.014;5.430;2023-11-22T03:35:43;18.90;45.10
72484;DHT22;74199;52.014;5.430;2023-11-22T03:38:10;18.90;45.00
72484;DHT22;74199;52.014;5.430;2023-11-22T03:40:37;18.90;45.00
72484;DHT22;74199;52.014;5.430;2023-11-22T03:43:04;18.90;45.00
72484;DHT22;74199;52.014;5.430;2023-11-22T03:45:31;18.90;45.00
72484;DHT22;74199;52.014;5.430;2023-11-22T03:47:59;18.90;44.90
72484;DHT22;74199;52.014;5.430;2023-11-22T03:50:26;18.90;44.90
72484;DHT22;74199;52.014;5.430;2023-11-22T03:52:53;18.90;44.80
72484;DHT22;74199;52.014;5.430;2023-11-22T03:55:20;18.90;44.80
72484;DHT22;74199;52.014;5.430;2023-11-22T03:57:47;18.90;44.80
72484;DHT22;74199;52.014;5.430;2023-11-22T04:00:14;18.80;44.70
72484;DHT22;74199;52.014;5.430;2023-11-22T04:02:41;18.90;44.70
72484;DHT22;74199;52.014;5.430;2023-11-22T04:05:10;18.80;44.60
72484;DHT22;74199;52.014;5.430;2023-11-22T04:07:38;18.80;44.60
72484;DHT22;74199;52.014;5.430;2023-11-22T04:10:06;18.80;44.50
72484;DHT22;74199;52.014;5.430;2023-11-22T04:12:33;18.80;44.40
72484;DHT22;74199;52.014;5.430;2023-11-22T04:15:02;18.80;44.40
72484;DHT22;74199;52.014;5.430;2023-11-22T04:17:29;18.80;44.40
72484;DHT22;74199;52.014;5.430;2023-11-22T04:19:56;18.80;44.40
72484;DHT22;74199;52.014;5.430;2023-11-22T04:22:23;18.80;44.30
72484;DHT22;74199;52.014;5.430;2023-11-22T04:24:50;18.80;44.30
72484;DHT22;74199;52.014;5.430;2023-11-22T04:27:17;18.80;44.30
72484;DHT22;74199;52.014;5.430;2023-11-22T04:29:44;18.80;44.30
72484;DHT22;74199;52.014;5.430;2023-11-22T04:32:12;18.80;44.30
72484;DHT22;74199;52.014;5.430;2023-11-22T04:34:39;18.80;44.20
72484;DHT22;74199;52.014;5.430;2023-11-22T04:37:06;18.80;44.10
72484;DHT22;74199;52.014;5.430;2023-11-22T04:39:33;18.80;44.10
72484;DHT22;74199;52.014;5.430;2023-11-22T04:42:00;18.80;44.00
72484;DHT22;74199;52.014;5.430;2023-11-22T04:44:27;18.70;43.90
72484;DHT22;74199;52.014;5.430;2023-11-22T04:46:54;18.80;44.00
72484;DHT22;74199;52.014;5.430;2023-11-22T04:49:22;18.80;43.90
72484;DHT22;74199;52.014;5.430;2023-11-22T04:51:48;18.80;43.90
72484;DHT22;74199;52.014;5.430;2023-11-22T04:54:16;18.80;43.80
72484;DHT22;74199;52.014;5.430;2023-11-22T04:56:44;18.80;43.80
72484;DHT22;74199;52.014;5.430;2023-11-22T04:59:11;18.80;43.70
72484;DHT22;74199;52.014;5.430;2023-11-22T05:01:38;18.80;43.80
72484;DHT22;74199;52.014;5.430;2023-11-22T05:04:05;18.80;43.70
72484;DHT22;74199;52.014;5.430;2023-11-22T05:06:32;18.80;43.70
72484;DHT22;74199;52.014;5.430;2023-11-22T05:08:59;18.80;43.70
72484;DHT22;74199;52.014;5.430;2023-11-22T05:11:26;18.80;43.60
72484;DHT22;74199;52.014;5.430;2023-11-22T05:13:53;18.80;43.60
72484;DHT22;74199;52.014;5.430;2023-11-22T05:16:20;18.80;43.50
72484;DHT22;74199;52.014;5.430;2023-11-22T05:18:47;18.80;43.40
72484;DHT22;74199;52.014;5.430;2023-11-22T05:21:14;18.80;43.50
72484;DHT22;74199;52.014;5.430;2023-11-22T05:23:40;18.80;43.40
72484;DHT22;74199;52.014;5.430;2023-11-22T05:26:12;18.80;43.40
72484;DHT22;74199;52.014;5.430;2023-11-22T05:28:39;18.80;43.40
72484;DHT22;74199;52.014;5.430;2023-11-22T05:31:06;18.80;43.40
72484;DHT22;74199;52.014;5.430;2023-11-22T05:33:33;18.80;43.40
72484;DHT22;74199;52.014;5.430;2023-11-22T05:35:59;18.80;43.40
72484;DHT22;74199;52.014;5.430;2023-11-22T05:38:26;18.70;43.40
72484;DHT22;74199;52.014;5.430;2023-11-22T05:40:54;18.80;43.40
72484;DHT22;74199;52.014;5.430;2023-11-22T05:43:21;18.80;43.50
72484;DHT22;74199;52.014;5.430;2023-11-22T05:45:53;18.80;43.40
72484;DHT22;74199;52.014;5.430;2023-11-22T05:48:20;18.80;43.40
72484;DHT22;74199;52.014;5.430;2023-11-22T05:50:48;18.80;43.50
72484;DHT22;74199;52.014;5.430;2023-11-22T05:53:15;18.80;43.50
72484;DHT22;74199;52.014;5.430;2023-11-22T05:55:46;18.80;43.50
72484;DHT22;74199;52.014;5.430;2023-11-22T05:58:17;18.80;43.40
72484;DHT22;74199;52.014;5.430;2023-11-22T06:00:47;18.80;43.40
72484;DHT22;74199;52.014;5.430;2023-11-22T06:03:14;18.80;43.50
72484;DHT22;74199;52.014;5.430;2023-11-22T06:05:41;18.80;43.50
72484;DHT22;74199;52.014;5.430;2023-11-22T06:08:08;18.80;43.40
72484;DHT22;74199;52.014;5.430;2023-11-22T06:10:38;18.80;43.40
72484;DHT22;74199;52.014;5.430;2023-11-22T06:13:08;18.80;43.40
72484;DHT22;74199;52.014;5.430;2023-11-22T06:15:35;18.80;43.40
72484;DHT22;74199;52.014;5.430;2023-11-22T06:18:02;18.80;43.30
72484;DHT22;74199;52.014;5.430;2023-11-22T06:20:29;18.80;43.30
72484;DHT22;74199;52.014;5.430;2023-11-22T06:22:56;18.80;43.40
72484;DHT22;74199;52.014;5.430;2023-11-22T06:25:23;18.80;43.50
72484;DHT22;74199;52.014;5.430;2023-11-22T06:27:50;18.80;43.50
72484;DHT22;74199;52.014;5.430;2023-11-22T06:30:17;18.80;43.60
72484;DHT22;74199;52.014;5.430;2023-11-22T06:32:44;18.80;43.50
72484;DHT22;74199;52.014;5.430;2023-11-22T06:35:11;18.80;43.50
72484;DHT22;74199;52.014;5.430;2023-11-22T06:37:41;18.80;43.40
72484;DHT22;74199;52.014;5.430;2023-11-22T06:40:09;18.90;43.30
72484;DHT22;74199;52.014;5.430;2023-11-22T06:42:36;19.00;43.10
72484;DHT22;74199;52.014;5.430;2023-11-22T06:45:04;19.00;43.00
72484;DHT22;74199;52.014;5.430;2023-11-22T06:47:33;19.10;42.70
72484;DHT22;74199;52.014;5.430;2023-11-22T06:50:00;19.00;42.60
72484;DHT22;74199;52.014;5.430;2023-11-22T06:52:27;19.00;42.60
72484;DHT22;74199;52.014;5.430;2023-11-22T06:54:54;18.90;42.70
72484;DHT22;74199;52.014;5.430;2023-11-22T06:57:21;18.90;42.70
72484;DHT22;74199;52.014;5.430;2023-11-22T06:59:58;18.80;42.90
72484;DHT22;74199;52.014;5.430;2023-11-22T07:02:25;18.80;43.20
72484;DHT22;74199;52.014;5.430;2023-11-22T07:04:52;18.70;43.30
72484;DHT22;74199;52.014;5.430;2023-11-22T07:07:19;18.80;43.40
72484;DHT22;74199;52.014;5.430;2023-11-22T07:09:46;18.90;43.20
72484;DHT22;74199;52.014;5.430;2023-11-22T07:12:13;19.00;43.00
72484;DHT22;74199;52.014;5.430;2023-11-22T07:14:40;19.00;42.90
72484;DHT22;74199;52.014;5.430;2023-11-22T07:17:10;19.10;42.90
72484;DHT22;74199;52.014;5.430;2023-11-22T07:19:37;19.10;43.00
72484;DHT22;74199;52.014;5.430;2023-11-22T07:22:05;19.10;43.40
72484;DHT22;74199;52.014;5.430;2023-11-22T07:24:43;19.00;42.80
72484;DHT22;74199;52.014;5.430;2023-11-22T07:27:11;18.80;43.10
72484;DHT22;74199;52.014;5.430;2023-11-22T07:29:42;18.80;43.30
72484;DHT22;74199;52.014;5.430;2023-11-22T07:32:10;18.70;43.50
72484;DHT22;74199;52.014;5.430;2023-11-22T07:34:39;18.70;43.70
72484;DHT22;74199;52.014;5.430;2023-11-22T07:37:06;18.70;43.70
72484;DHT22;74199;52.014;5.430;2023-11-22T07:39:37;18.70;43.80
72484;DHT22;74199;52.014;5.430;2023-11-22T07:42:05;18.60;43.90
72484;DHT22;74199;52.014;5.430;2023-11-22T07:44:35;18.60;44.00
72484;DHT22;74199;52.014;5.430;2023-11-22T07:47:06;18.60;44.20
72484;DHT22;74199;52.014;5.430;2023-11-22T07:49:39;18.60;44.30
72484;DHT22;74199;52.014;5.430;2023-11-22T07:52:06;18.50;44.40
72484;DHT22;74199;52.014;5.430;2023-11-22T07:54:33;18.60;44.50
72484;DHT22;74199;52.014;5.430;2023-11-22T07:57:02;18.60;44.40
72484;DHT22;74199;52.014;5.430;2023-11-22T07:59:29;18.60;44.40
72484;DHT22;74199;52.014;5.430;2023-11-22T08:01:57;18.70;44.40
72484;DHT22;74199;52.014;5.430;2023-11-22T08:04:24;18.70;44.40
72484;DHT22;74199;52.014;5.430;2023-11-22T08:06:51;18.60;44.40
72484;DHT22;74199;52.014;5.430;2023-11-22T08:09:19;18.60;44.30
72484;DHT22;74199;52.014;5.430;2023-11-22T08:11:46;18.70;44.20
72484;DHT22;74199;52.014;5.430;2023-11-22T08:14:15;18.70;44.20
72484;DHT22;74199;52.014;5.430;2023-11-22T08:16:42;18.70;44.50
72484;DHT22;74199;52.014;5.430;2023-11-22T08:19:09;18.70;44.50
72484;DHT22;74199;52.014;5.430;2023-11-22T08:21:37;18.70;44.50
72484;DHT22;74199;52.014;5.430;2023-11-22T08:24:05;18.70;44.40
72484;DHT22;74199;52.014;5.430;2023-11-22T08:26:32;18.70;44.30
72484;DHT22;74199;52.014;5.430;2023-11-22T08:28:59;18.70;44.40
72484;DHT22;74199;52.014;5.430;2023-11-22T08:31:26;18.60;44.40
72484;DHT22;74199;52.014;5.430;2023-11-22T08:33:53;18.70;44.30
72484;DHT22;74199;52.014;5.430;2023-11-22T08:36:20;18.60;44.20
72484;DHT22;74199;52.014;5.430;2023-11-22T08:38:47;18.60;44.10
72484;DHT22;74199;52.014;5.430;2023-11-22T08:41:14;18.60;44.10
72484;DHT22;74199;52.014;5.430;2023-11-22T08:43:41;18.60;44.10
72484;DHT22;74199;52.014;5.430;2023-11-22T08:46:09;18.70;44.10
72484;DHT22;74199;52.014;5.430;2023-11-22T08:48:41;18.70;44.10
72484;DHT22;74199;52.014;5.430;2023-11-22T08:51:10;18.70;44.00
72484;DHT22;74199;52.014;5.430;2023-11-22T08:53:37;18.70;44.00
72484;DHT22;74199;52.014;5.430;2023-11-22T08:56:05;18.70;44.00
72484;DHT22;74199;52.014;5.430;2023-11-22T08:58:33;18.70;44.00
72484;DHT22;74199;52.014;5.430;2023-11-22T09:01:00;18.70;43.90
72484;DHT22;74199;52.014;5.430;2023-11-22T09:03:27;18.70;44.00
72484;DHT22;74199;52.014;5.430;2023-11-22T09:05:55;18.70;44.00
72484;DHT22;74199;52.014;5.430;2023-11-22T09:08:23;18.70;44.10
72484;DHT22;74199;52.014;5.430;2023-11-22T09:10:54;18.70;44.10
72484;DHT22;74199;52.014;5.430;2023-11-22T09:13:21;18.70;44.10
72484;DHT22;74199;52.014;5.430;2023-11-22T09:15:49;18.70;44.10
72484;DHT22;74199;52.014;5.430;2023-11-22T09:18:16;18.70;44.10
72484;DHT22;74199;52.014;5.430;2023-11-22T09:20:44;18.70;44.20
72484;DHT22;74199;52.014;5.430;2023-11-22T09:23:11;18.70;44.20
72484;DHT22;74199;52.014;5.430;2023-11-22T09:25:40;18.80;44.20
72484;DHT22;74199;52.014;5.430;2023-11-22T09:28:07;18.70;44.30
72484;DHT22;74199;52.014;5.430;2023-11-22T09:30:36;18.70;44.30
72484;DHT22;74199;52.014;5.430;2023-11-22T09:33:07;18.70;44.30
72484;DHT22;74199;52.014;5.430;2023-11-22T09:35:36;18.70;44.30
72484;DHT22;74199;52.014;5.430;2023-11-22T09:38:06;18.80;44.40
72484;DHT22;74199;52.014;5.430;2023-11-22T09:40:43;18.80;44.40
72484;DHT22;74199;52.014;5.430;2023-11-22T09:43:11;18.80;44.40
72484;DHT22;74199;52.014;5.430;2023-11-22T09:45:39;18.80;44.50
72484;DHT22;74199;52.014;5.430;2023-11-22T09:48:17;18.80;44.90
72484;DHT22;74199;52.014;5.430;2023-11-22T09:51:13;18.80;45.10
72484;DHT22;74199;52.014;5.430;2023-11-22T09:53:57;18.80;45.20
72484;DHT22;74199;52.014;5.430;2023-11-22T09:56:31;18.80;45.20
72484;DHT22;74199;52.014;5.430;2023-11-22T09:59:00;18.80;45.30
72484;DHT22;74199;52.014;5.430;2023-11-22T10:01:28;18.80;45.40
72484;DHT22;74199;52.014;5.430;2023-11-22T10:03:58;18.80;45.40
72484;DHT22;74199;52.014;5.430;2023-11-22T10:06:26;18.80;45.40
72484;DHT22;74199;52.014;5.430;2023-11-22T10:08:57;18.80;45.40
72484;DHT22;74199;52.014;5.430;2023-11-22T10:11:24;18.80;45.30
72484;DHT22;74199;52.014;5.430;2023-11-22T10:13:51;18.90;45.40
72484;DHT22;74199;52.014;5.430;2023-11-22T10:16:19;18.90;45.30
72484;DHT22;74199;52.014;5.430;2023-11-22T10:18:48;18.90;45.20
72484;DHT22;74199;52.014;5.430;2023-11-22T10:21:26;18.90;45.20
72484;DHT22;74199;52.014;5.430;2023-11-22T10:23:57;18.90;45.20
72484;DHT22;74199;52.014;5.430;2023-11-22T10:26:26;18.90;45.20
72484;DHT22;74199;52.014;5.430;2023-11-22T10:28:57;18.90;45.30
72484;DHT22;74199;52.014;5.430;2023-11-22T10:31:25;19.00;45.30
72484;DHT22;74199;52.014;5.430;2023-11-22T10:33:53;19.00;45.20
72484;DHT22;74199;52.014;5.430;2023-11-22T10:36:23;19.00;45.30
72484;DHT22;74199;52.014;5.430;2023-11-22T10:38:50;19.00;45.30
72484;DHT22;74199;52.014;5.430;2023-11-22T10:41:20;19.10;45.30
72484;DHT22;74199;52.014;5.430;2023-11-22T10:43:52;19.10;45.20
72484;DHT22;74199;52.014;5.430;2023-11-22T10:46:27;19.10;45.40
72484;DHT22;74199;52.014;5.430;2023-11-22T10:48:55;19.20;45.60
72484;DHT22;74199;52.014;5.430;2023-11-22T10:51:35;19.20;45.60
72484;DHT22;74199;52.014;5.430;2023-11-22T10:54:04;19.20;45.60
72484;DHT22;74199;52.014;5.430;2023-11-22T10:56:38;19.20;45.70
72484;DHT22;74199;52.014;5.430;2023-11-22T10:59:13;19.30;45.80
72484;DHT22;74199;52.014;5.430;2023-11-22T11:01:44;19.30;45.80
72484;DHT22;74199;52.014;5.430;2023-11-22T11:04:27;19.30;45.90
72484;DHT22;74199;52.014;5.430;2023-11-22T11:06:55;19.30;45.90
72484;DHT22;74199;52.014;5.430;2023-11-22T11:09:23;19.30;45.80
72484;DHT22;74199;52.014;5.430;2023-11-22T11:11:59;19.30;45.90
72484;DHT22;74199;52.014;5.430;2023-11-22T11:14:28;19.30;45.90
72484;DHT22;74199;52.014;5.430;2023-11-22T11:16:55;19.30;45.90
72484;DHT22;74199;52.014;5.430;2023-11-22T11:19:25;19.30;45.90
72484;DHT22;74199;52.014;5.430;2023-11-22T11:21:54;19.30;46.00
72484;DHT22;74199;52.014;5.430;2023-11-22T11:24:24;19.30;46.00
72484;DHT22;74199;52.014;5.430;2023-11-22T11:26:51;19.30;46.20
72484;DHT22;74199;52.014;5.430;2023-11-22T11:29:36;19.40;46.30
72484;DHT22;74199;52.014;5.430;2023-11-22T11:32:11;19.40;46.40
72484;DHT22;74199;52.014;5.430;2023-11-22T11:34:47;19.40;46.40
72484;DHT22;74199;52.014;5.430;2023-11-22T11:37:17;19.50;46.30
72484;DHT22;74199;52.014;5.430;2023-11-22T11:39:45;19.50;45.70
72484;DHT22;74199;52.014;5.430;2023-11-22T11:42:12;19.40;45.60
72484;DHT22;74199;52.014;5.430;2023-11-22T11:45:03;19.40;45.70
72484;DHT22;74199;52.014;5.430;2023-11-22T11:47:33;19.40;45.80
72484;DHT22;74199;52.014;5.430;2023-11-22T11:50:00;19.30;45.90
72484;DHT22;74199;52.014;5.430;2023-11-22T11:52:28;19.30;45.90
72484;DHT22;74199;52.014;5.430;2023-11-22T11:54:57;19.30;46.00
72484;DHT22;74199;52.014;5.430;2023-11-22T11:57:26;19.30;46.00
72484;DHT22;74199;52.014;5.430;2023-11-22T11:59:53;19.30;45.90
72484;DHT22;74199;52.014;5.430;2023-11-22T12:02:21;19.30;45.90
72484;DHT22;74199;52.014;5.430;2023-11-22T12:04:49;19.30;45.90
72484;DHT22;74199;52.014;5.430;2023-11-22T12:07:15;19.20;45.90
72484;DHT22;74199;52.014;5.430;2023-11-22T12:09:43;19.20;45.90
72484;DHT22;74199;52.014;5.430;2023-11-22T12:12:10;19.20;45.90
72484;DHT22;74199;52.014;5.430;2023-11-22T12:14:37;19.20;46.00
72484;DHT22;74199;52.014;5.430;2023-11-22T12:17:04;19.20;45.90
72484;DHT22;74199;52.014;5.430;2023-11-22T12:19:32;19.20;46.00
72484;DHT22;74199;52.014;5.430;2023-11-22T12:22:01;19.20;46.00
72484;DHT22;74199;52.014;5.430;2023-11-22T12:24:28;19.20;46.00
72484;DHT22;74199;52.014;5.430;2023-11-22T12:26:55;19.20;46.00
72484;DHT22;74199;52.014;5.430;2023-11-22T12:29:23;19.20;46.00
72484;DHT22;74199;52.014;5.430;2023-11-22T12:31:51;19.20;46.00
72484;DHT22;74199;52.014;5.430;2023-11-22T12:34:19;19.20;46.00
72484;DHT22;74199;52.014;5.430;2023-11-22T12:36:49;19.20;46.00
72484;DHT22;74199;52.014;5.430;2023-11-22T12:39:16;19.20;46.00
72484;DHT22;74199;52.014;5.430;2023-11-22T12:41:53;19.30;45.90
72484;DHT22;74199;52.014;5.430;2023-11-22T12:44:46;19.30;45.90
72484;DHT22;74199;52.014;5.430;2023-11-22T12:47:14;19.30;46.00
72484;DHT22;74199;52.014;5.430;2023-11-22T12:49:44;19.30;46.00
72484;DHT22;74199;52.014;5.430;2023-11-22T12:52:12;19.40;46.10
72484;DHT22;74199;52.014;5.430;2023-11-22T12:54:39;19.40;46.20
72484;DHT22;74199;52.014;5.430;2023-11-22T12:57:10;19.50;46.20
72484;DHT22;74199;52.014;5.430;2023-11-22T12:59:39;19.50;46.20
72484;DHT22;74199;52.014;5.430;2023-11-22T13:02:08;19.50;46.10
72484;DHT22;74199;52.014;5.430;2023-11-22T13:04:35;19.50;46.10
72484;DHT22;74199;52.014;5.430;2023-11-22T13:07:02;19.40;46.20
72484;DHT22;74199;52.014;5.430;2023-11-22T13:09:29;19.40;46.30
72484;DHT22;74199;52.014;5.430;2023-11-22T13:11:59;19.40;46.30
72484;DHT22;74199;52.014;5.430;2023-11-22T13:14:26;19.40;46.30
72484;DHT22;74199;52.014;5.430;2023-11-22T13:16:58;19.40;46.30
72484;DHT22;74199;52.014;5.430;2023-11-22T13:19:26;19.40;46.40
72484;DHT22;74199;52.014;5.430;2023-11-22T13:21:53;19.30;46.40
72484;DHT22;74199;52.014;5.430;2023-11-22T13:24:19;19.30;46.40
72484;DHT22;74199;52.014;5.430;2023-11-22T13:26:47;19.30;46.50
72484;DHT22;74199;52.014;5.430;2023-11-22T13:29:14;19.30;46.50
72484;DHT22;74199;52.014;5.430;2023-11-22T13:31:41;19.30;46.50
72484;DHT22;74199;52.014;5.430;2023-11-22T13:34:08;19.30;46.50
72484;DHT22;74199;52.014;5.430;2023-11-22T13:36:35;19.30;46.50
72484;DHT22;74199;52.014;5.430;2023-11-22T13:39:02;19.20;46.50
72484;DHT22;74199;52.014;5.430;2023-11-22T13:41:30;19.20;46.60
72484;DHT22;74199;52.014;5.430;2023-11-22T13:43:57;19.20;46.70
72484;DHT22;74199;52.014;5.430;2023-11-22T13:46:24;19.20;46.90
72484;DHT22;74199;52.014;5.430;2023-11-22T13:48:51;19.20;47.10
72484;DHT22;74199;52.014;5.430;2023-11-22T13:51:17;19.20;47.10
72484;DHT22;74199;52.014;5.430;2023-11-22T13:53:44;19.20;47.30
72484;DHT22;74199;52.014;5.430;2023-11-22T13:56:16;19.10;47.40
72484;DHT22;74199;52.014;5.430;2023-11-22T13:58:45;19.10;47.50
72484;DHT22;74199;52.014;5.430;2023-11-22T14:01:12;19.10;47.50
72484;DHT22;74199;52.014;5.430;2023-11-22T14:03:44;19.10;47.50
72484;DHT22;74199;52.014;5.430;2023-11-22T14:06:11;19.10;47.60
72484;DHT22;74199;52.014;5.430;2023-11-22T14:08:41;19.10;47.60
72484;DHT22;74199;52.014;5.430;2023-11-22T14:11:08;19.10;47.50
72484;DHT22;74199;52.014;5.430;2023-11-22T14:13:36;19.20;47.40
72484;DHT22;74199;52.014;5.430;2023-11-22T14:16:03;19.20;47.50
72484;DHT22;74199;52.014;5.430;2023-11-22T14:18:31;19.20;47.40
72484;DHT22;74199;52.014;5.430;2023-11-22T14:20:58;19.20;47.40
72484;DHT22;74199;52.014;5.430;2023-11-22T14:23:28;19.10;47.50
72484;DHT22;74199;52.014;5.430;2023-11-22T14:25:55;19.10;47.50
72484;DHT22;74199;52.014;5.430;2023-11-22T14:28:22;19.10;47.70
72484;DHT22;74199;52.014;5.430;2023-11-22T14:30:50;19.10;47.80
72484;DHT22;74199;52.014;5.430;2023-11-22T14:33:22;19.10;47.90
72484;DHT22;74199;52.014;5.430;2023-11-22T14:35:49;19.10;47.90
72484;DHT22;74199;52.014;5.430;2023-11-22T14:38:16;19.10;47.90
72484;DHT22;74199;52.014;5.430;2023-11-22T14:40:45;19.10;47.90
72484;DHT22;74199;52.014;5.430;2023-11-22T14:43:13;19.10;47.10
72484;DHT22;74199;52.014;5.430;2023-11-22T14:45:40;18.90;46.60
72484;DHT22;74199;52.014;5.430;2023-11-22T14:48:07;18.80;46.80
72484;DHT22;74199;52.014;5.430;2023-11-22T14:50:35;18.80;46.90
72484;DHT22;74199;52.014;5.430;2023-11-22T14:53:02;18.80;46.80
72484;DHT22;74199;52.014;5.430;2023-11-22T14:55:30;18.90;46.50
72484;DHT22;74199;52.014;5.430;2023-11-22T14:57:57;18.90;46.30
72484;DHT22;74199;52.014;5.430;2023-11-22T15:00:26;19.00;46.10
72484;DHT22;74199;52.014;5.430;2023-11-22T15:02:53;19.00;46.00
72484;DHT22;74199;52.014;5.430;2023-11-22T15:05:23;19.10;45.90
72484;DHT22;74199;52.014;5.430;2023-11-22T15:07:50;19.10;45.90
72484;DHT22;74199;52.014;5.430;2023-11-22T15:10:24;19.10;45.80
72484;DHT22;74199;52.014;5.430;2023-11-22T15:12:52;19.10;45.80
72484;DHT22;74199;52.014;5.430;2023-11-22T15:15:21;19.10;45.70
72484;DHT22;74199;52.014;5.430;2023-11-22T15:17:51;19.10;45.60
72484;DHT22;74199;52.014;5.430;2023-11-22T15:20:18;19.10;45.60
72484;DHT22;74199;52.014;5.430;2023-11-22T15:22:45;19.10;45.60
72484;DHT22;74199;52.014;5.430;2023-11-22T15:25:12;19.10;45.50
72484;DHT22;74199;52.014;5.430;2023-11-22T15:27:42;19.10;45.50
72484;DHT22;74199;52.014;5.430;2023-11-22T15:30:09;19.10;45.50
72484;DHT22;74199;52.014;5.430;2023-11-22T15:32:38;19.10;45.40
72484;DHT22;74199;52.014;5.430;2023-11-22T15:35:06;19.10;45.40
72484;DHT22;74199;52.014;5.430;2023-11-22T15:37:33;19.10;45.50